Briefing drone pour Noyers-sur-cher

Rechercher une autre localisation

Conditions de vol :


Nous sommes le : Samedi 20 avril 2024
Il est 00:34 UTC (02:34 LT)

Lever de soleil : 04:29 UTC (06:29 LT)
Coucher de soleil : 19:17 UTC (21:17 LT)

Météo

L'essentiel des conditions de vol

VIGILANCE MÉTÉO FRANCE - Loir-et-Cher (41)
Vigilance Jaune : Orages
CARTE TEMSI
CARTES DES FRONTS
METAR de LFYR
LFYR 200030Z AUTO VRB02KT 9999 FEW022 SCT064 OVC078 09/07 Q1021

Date d'émission: 20/04/2024
Heure d'émission: 00:30 UTC
Vent: Variable 2 KT (4 km/h)
Visibilité horizontale: > 10 km
Plafond :
- Peu de nuages à 2200ft (671m)
- Nuages épars à 6400ft (1951m)
- Couvert à 7800ft (2377m)
Température: 9 °C
Point de rosée: 7 °C
Humidité: 87%
Pression (QNH): 1021 hPa
TAF de LFYR
AMD LFYR 191307Z 1913/2009 CNL

Conditions prévues :

Heure d'émission : Bulletin éffectué le 19 à 13:00 UTC
Prévision : Valide du 19 a 13:00 UTC au 20 a 09:00 UTC
Nuages : à 0ft (0 m)
WEBCAM POUR NOYERS-SUR-CHER

Réglementation

Voler en sécurité

CARTES AERONAUTIQUE 1/500.000
CARTE AZBA (Reseau basse altitude)
CARTES VAC (LFYR)
SUP AIP




Chargement des AIP...
NOTAM (NOYERS-SUR-CHER + Terrain à proximité / FIR )




Chargement des NOTAMS...
CONTACT PREFECTURE 41
Loir-et-Cher (41) : [email protected]


Avertissement : Les données mises à disposition sont indicatives. Oxygène Drone ne pourra être tenu responsable de dégâts causés aux biens et aux personnes.